Time;durP1;ratioP1;P1;durP2;ratioP2;P2;SDS_P1;SDS_P2;PMS_P1;PMS_P2;Temp;Humidity;BMP_temperature;BMP_pressure;BME280_temperature;BME280_humidity;BME280_pressure;Samples;Min_cycle;Max_cycle;Signal;HPM_P1;HPM_P2
2022/04/30 00:02:06;;;;;;;;;;;;;;;1.93;77.87;99676.34;5019165;28;20331;-62
2022/04/30 00:04:42;;;;;;;;;;;;;;;1.79;78.19;99667.44;5012887;28;20032;-62
2022/04/30 00:07:08;;;;;;;;;;;;;;;1.75;78.65;99664.38;5013114;28;20450;-61
2022/04/30 00:09:34;;;;;;;;;;;;;;;1.72;78.88;99666.53;5012866;28;19956;-62
2022/04/30 00:11:59;;;;;;;;;;;;;;;1.69;78.30;99661.66;5013035;28;19982;-61
2022/04/30 00:14:25;;;;;;;;;;;;;;;1.66;78.51;99667.22;5012896;28;19925;-62
2022/04/30 00:16:51;;;;;;;;;;;;;;;1.62;78.27;99660.69;5013050;28;19930;-62
2022/04/30 00:19:16;;;;;;;;;;;;;;;1.62;78.69;99661.53;5026815;28;19925;-63
2022/04/30 00:21:42;;;;;;;;;;;;;;;1.60;78.77;99660.88;5032189;28;19936;-63
2022/04/30 00:24:08;;;;;;;;;;;;;;;1.59;78.85;99667.09;5032005;28;20317;-62
2022/04/30 00:26:33;;;;;;;;;;;;;;;1.59;79.04;99665.31;5031954;28;19925;-62
2022/04/30 00:29:00;;;;;;;;;;;;;;;1.58;79.07;99676.72;5030701;28;19925;-63
2022/04/30 00:31:26;;;;;;;;;;;;;;;1.52;78.48;99674.78;5032426;28;19929;-63
2022/04/30 00:33:51;;;;;;;;;;;;;;;1.57;79.12;99675.09;5031813;28;19929;-61
2022/04/30 00:36:17;;;;;;;;;;;;;;;1.58;78.22;99668.88;5030661;28;20330;-62
2022/04/30 00:38:43;;;;;;;;;;;;;;;1.56;78.41;99676.09;5031716;28;19929;-61
2022/04/30 00:41:08;;;;;;;;;;;;;;;1.58;78.79;99679.34;5031941;28;20217;-61
2022/04/30 00:43:43;;;;;;;;;;;;;;;1.54;78.58;99675.44;5032188;28;20394;-62
2022/04/30 00:46:15;;;;;;;;;;;;;;;1.53;78.48;99673.00;5031180;28;20003;-62
2022/04/30 00:48:41;;;;;;;;;;;;;;;1.51;78.79;99667.97;5030106;28;19925;-61
2022/04/30 00:51:08;;;;;;;;;;;;;;;1.51;78.82;99667.97;5031757;28;19925;-62
2022/04/30 00:53:33;;;;;;;;;;;;;;;1.53;78.88;99676.44;5030043;28;19925;-61
2022/04/30 00:55:59;;;;;;;;;;;;;;;1.54;78.44;99672.84;5010615;28;19925;-61
2022/04/30 00:58:24;;;;;;;;;;;;;;;1.55;78.55;99674.47;5016928;28;20306;-63
2022/04/30 01:00:51;;;;;;;;;;;;;;;1.59;78.22;99680.97;5031358;28;19932;-62
2022/04/30 01:03:30;;;;;;;;;;;;;;;1.71;77.93;99678.78;5015757;28;19929;-62
2022/04/30 01:06:05;;;;;;;;;;;;;;;1.84;77.48;99691.28;5031493;28;19925;-62
2022/04/30 01:08:30;;;;;;;;;;;;;;;1.95;77.06;99690.88;5031446;28;19978;-63
2022/04/30 01:11:00;;;;;;;;;;;;;;;1.98;76.53;99689.72;5030497;28;20049;-63
2022/04/30 01:13:27;;;;;;;;;;;;;;;2.01;76.20;99698.03;5031640;28;20411;-59
2022/04/30 01:15:52;;;;;;;;;;;;;;;1.96;76.01;99689.06;5010921;28;20001;-61
2022/04/30 01:18:18;;;;;;;;;;;;;;;2.12;76.13;99695.97;5023287;28;19932;-62
2022/04/30 01:20:46;;;;;;;;;;;;;;;2.16;75.58;99689.44;5029859;28;19932;-63
2022/04/30 01:23:12;;;;;;;;;;;;;;;2.18;75.44;99698.72;5030020;28;19929;-61
2022/04/30 01:25:38;;;;;;;;;;;;;;;2.20;75.40;99699.34;5031417;28;19971;-64
2022/04/30 01:28:03;;;;;;;;;;;;;;;2.24;75.48;99700.66;5031450;28;19956;-61
2022/04/30 01:30:29;;;;;;;;;;;;;;;2.34;75.21;99695.16;5031196;28;19933;-61
2022/04/30 01:38:22;;;;;;;;;;;;;;;2.30;74.79;99685.25;5031056;28;20071;-61
2022/04/30 01:40:48;;;;;;;;;;;;;;;2.21;74.72;99687.13;5031067;28;20376;-62
2022/04/30 01:43:13;;;;;;;;;;;;;;;2.14;75.56;99689.59;5031581;28;20277;-61
2022/04/30 01:45:39;;;;;;;;;;;;;;;2.07;75.52;99693.09;5013521;28;19972;-61
2022/04/30 01:48:05;;;;;;;;;;;;;;;2.14;75.32;99697.44;5030209;28;20024;-61
2022/04/30 01:50:32;;;;;;;;;;;;;;;2.20;74.69;99701.97;5029562;28;19924;-62
2022/04/30 01:52:58;;;;;;;;;;;;;;;2.14;75.29;99701.88;5031566;28;19929;-62
2022/04/30 01:55:23;;;;;;;;;;;;;;;2.14;75.21;99702.66;5029937;28;19947;-61
2022/04/30 01:57:56;;;;;;;;;;;;;;;2.12;74.69;99702.06;5031308;28;19990;-61
2022/04/30 02:00:22;;;;;;;;;;;;;;;2.05;73.98;99703.72;5031999;28;20393;-62
2022/04/30 02:02:49;;;;;;;;;;;;;;;2.09;74.13;99710.25;5033829;28;19979;-60
2022/04/30 02:05:15;;;;;;;;;;;;;;;1.99;74.43;99707.84;5034681;28;19925;-61
2022/04/30 02:07:46;;;;;;;;;;;;;;;2.02;73.78;99710.09;5034938;28;19928;-62
2022/04/30 02:10:11;;;;;;;;;;;;;;;1.98;74.06;99703.59;5033008;28;19924;-60
2022/04/30 02:12:37;;;;;;;;;;;;;;;1.96;73.57;99708.19;5034612;28;19936;-62
2022/04/30 02:15:04;;;;;;;;;;;;;;;1.86;73.84;99709.41;5033273;28;19925;-64
2022/04/30 02:17:30;;;;;;;;;;;;;;;1.96;73.32;99710.00;5034490;28;19929;-61
2022/04/30 02:22:40;;;;;;;;;;;;;;;2.15;72.50;99709.53;5032966;28;20024;-61
2022/04/30 02:25:09;;;;;;;;;;;;;;;1.97;72.16;99701.16;5033356;28;20019;-62
2022/04/30 02:27:37;;;;;;;;;;;;;;;1.87;72.28;99700.56;5033207;28;19929;-62
2022/04/30 02:30:04;;;;;;;;;;;;;;;1.87;72.98;99711.84;5033862;28;20008;-63
2022/04/30 02:32:38;;;;;;;;;;;;;;;1.86;73.19;99710.22;5032902;28;19929;-62
2022/04/30 02:35:04;;;;;;;;;;;;;;;1.88;72.98;99702.19;5034014;28;19979;-62
2022/04/30 02:37:30;;;;;;;;;;;;;;;1.92;73.01;99708.72;5033615;28;19933;-60
2022/04/30 02:39:56;;;;;;;;;;;;;;;2.03;73.25;99711.75;5032911;28;20428;-62
2022/04/30 02:42:21;;;;;;;;;;;;;;;2.15;72.99;99716.59;5033981;28;19936;-61
2022/04/30 02:44:47;;;;;;;;;;;;;;;2.23;72.63;99719.13;5017674;28;20023;-62
2022/04/30 02:47:13;;;;;;;;;;;;;;;2.32;72.42;99714.63;5034481;28;19925;-61
2022/04/30 02:49:38;;;;;;;;;;;;;;;2.43;71.76;99716.84;5033829;28;19925;-62
2022/04/30 02:52:04;;;;;;;;;;;;;;;2.52;71.61;99717.59;5033878;28;19935;-59
2022/04/30 02:54:33;;;;;;;;;;;;;;;2.60;70.99;99720.13;5021710;28;19929;-63
2022/04/30 02:56:59;;;;;;;;;;;;;;;2.67;70.33;99726.28;5032961;28;20027;-60
2022/04/30 03:00:09;;;;;;;;;;;;;;;2.69;70.17;99726.91;5022878;28;19960;-61
2022/04/30 03:02:18;;;;;;;;;;;;;;;3.17;68.26;99730.03;5006064;28;20000;-62
2022/04/30 03:04:52;;;;;;;;;;;;;;;3.25;67.87;99735.19;5013229;28;19925;-61
2022/04/30 03:07:18;;;;;;;;;;;;;;;3.39;67.63;99734.38;4996780;28;20408;-61
2022/04/30 03:09:46;;;;;;;;;;;;;;;3.87;65.72;99726.84;5014304;28;20373;-62
2022/04/30 03:12:12;;;;;;;;;;;;;;;4.02;65.10;99728.63;5013432;28;20024;-61
2022/04/30 03:14:38;;;;;;;;;;;;;;;3.94;65.53;99719.09;5014146;28;20350;-62
2022/04/30 03:22:32;;;;;;;;;;;;;;;3.96;65.67;99737.25;5031858;28;20023;-60
2022/04/30 03:24:57;;;;;;;;;;;;;;;4.48;63.73;99736.94;5033814;28;20217;-62
2022/04/30 03:27:23;;;;;;;;;;;;;;;4.79;62.67;99743.63;5033521;28;20465;-61
2022/04/30 03:29:49;;;;;;;;;;;;;;;5.01;61.67;99742.59;5033447;28;19987;-62
2022/04/30 03:32:14;;;;;;;;;;;;;;;5.31;61.07;99750.25;5033425;28;20383;-61
2022/04/30 03:34:40;;;;;;;;;;;;;;;5.56;59.87;99747.13;5033161;28;19925;-61
2022/04/30 03:37:05;;;;;;;;;;;;;;;5.69;58.61;99752.44;5031538;28;19979;-61
2022/04/30 03:39:31;;;;;;;;;;;;;;;5.67;59.70;99751.81;5033274;28;19931;-61
2022/04/30 03:41:56;;;;;;;;;;;;;;;5.86;58.55;99751.09;5033102;28;20263;-60
2022/04/30 03:44:23;;;;;;;;;;;;;;;6.24;58.21;99757.72;5033216;28;19968;-61
2022/04/30 03:46:49;;;;;;;;;;;;;;;6.74;55.95;99758.16;5032859;28;19925;-61
2022/04/30 03:49:14;;;;;;;;;;;;;;;6.59;56.04;99761.78;5032870;28;19925;-63
2022/04/30 03:51:40;;;;;;;;;;;;;;;5.98;57.45;99758.44;5032947;28;19929;-61
2022/04/30 03:54:05;;;;;;;;;;;;;;;5.52;58.47;99765.09;5028178;28;20032;-63
2022/04/30 03:56:32;;;;;;;;;;;;;;;5.14;59.51;99775.19;5032372;28;19929;-61
2022/04/30 03:58:57;;;;;;;;;;;;;;;4.91;61.05;99778.06;5033113;28;20286;-63
2022/04/30 04:01:24;;;;;;;;;;;;;;;4.60;62.17;99767.94;5032828;28;19929;-62
2022/04/30 04:03:50;;;;;;;;;;;;;;;4.76;62.44;99775.53;5032753;28;20003;-62
2022/04/30 04:06:16;;;;;;;;;;;;;;;4.92;61.70;99775.25;5032538;28;19936;-60
2022/04/30 04:08:42;;;;;;;;;;;;;;;5.27;60.43;99772.66;5032445;28;19925;-62
2022/04/30 04:11:10;;;;;;;;;;;;;;;5.59;59.08;99775.66;5031006;28;19932;-61
2022/04/30 04:19:09;;;;;;;;;;;;;;;5.48;58.96;99779.66;5022082;28;20078;-61
2022/04/30 04:21:34;;;;;;;;;;;;;;;5.82;59.16;99794.56;5032225;28;20415;-61
2022/04/30 04:26:44;;;;;;;;;;;;;;;6.04;57.59;99783.97;5032118;28;20385;-61
2022/04/30 04:29:10;;;;;;;;;;;;;;;5.80;57.48;99798.44;5030949;28;19925;-61
2022/04/30 04:31:36;;;;;;;;;;;;;;;5.87;57.99;99797.44;5032045;28;20406;-63
2022/04/30 04:34:01;;;;;;;;;;;;;;;6.06;56.66;99801.19;5031762;28;19925;-62
2022/04/30 04:36:27;;;;;;;;;;;;;;;6.35;55.83;99804.47;5031080;28;19929;-62
2022/04/30 04:38:52;;;;;;;;;;;;;;;6.55;55.29;99804.53;5030873;28;20309;-61
2022/04/30 04:41:18;;;;;;;;;;;;;;;6.52;54.10;99808.38;5031888;28;19925;-61
2022/04/30 04:43:43;;;;;;;;;;;;;;;6.24;55.00;99802.47;5032209;28;20047;-60
2022/04/30 04:46:09;;;;;;;;;;;;;;;6.04;55.08;99812.91;5032179;28;20431;-62
2022/04/30 04:48:35;;;;;;;;;;;;;;;5.68;56.59;99812.13;5032290;28;19925;-61
2022/04/30 04:51:00;;;;;;;;;;;;;;;5.72;56.01;99803.84;5030690;28;19925;-63
2022/04/30 04:53:26;;;;;;;;;;;;;;;5.89;55.49;99810.41;5031395;28;19929;-61
2022/04/30 04:55:51;;;;;;;;;;;;;;;5.92;54.82;99808.19;5032051;28;20031;-61
2022/04/30 04:58:17;;;;;;;;;;;;;;;5.95;53.86;99814.09;5032046;28;19936;-62
2022/04/30 05:00:42;;;;;;;;;;;;;;;5.78;53.59;99808.31;5031833;28;19979;-63
2022/04/30 05:03:08;;;;;;;;;;;;;;;5.82;53.76;99815.63;5031778;28;19935;-61
2022/04/30 05:05:33;;;;;;;;;;;;;;;5.74;51.69;99812.38;5031811;28;19925;-62
2022/04/30 05:07:59;;;;;;;;;;;;;;;5.79;52.43;99815.19;5032100;28;19932;-61
2022/04/30 05:10:24;;;;;;;;;;;;;;;5.67;52.23;99817.56;5031758;28;19932;-64
2022/04/30 05:12:50;;;;;;;;;;;;;;;5.47;53.68;99812.19;5030141;28;19929;-63
2022/04/30 05:15:15;;;;;;;;;;;;;;;5.46;54.74;99806.13;5031461;28;20417;-65
2022/04/30 05:17:41;;;;;;;;;;;;;;;5.21;54.55;99805.78;5031575;28;19959;-62
2022/04/30 05:20:06;;;;;;;;;;;;;;;5.14;54.76;99814.63;5031780;28;19925;-61
2022/04/30 05:22:33;;;;;;;;;;;;;;;5.11;56.39;99815.00;5031464;28;19925;-62
2022/04/30 05:24:58;;;;;;;;;;;;;;;5.23;57.41;99808.22;5031676;28;19925;-66
2022/04/30 05:27:24;;;;;;;;;;;;;;;5.39;55.89;99807.94;5030990;28;19975;-63
2022/04/30 05:29:49;;;;;;;;;;;;;;;5.47;54.57;99820.94;5031339;28;19925;-61
2022/04/30 05:32:15;;;;;;;;;;;;;;;5.55;53.96;99814.69;5031267;28;19933;-63
2022/04/30 05:34:41;;;;;;;;;;;;;;;5.63;52.72;99813.72;5032654;28;19925;-62
2022/04/30 05:37:06;;;;;;;;;;;;;;;5.67;54.45;99820.19;5035272;28;20047;-63
2022/04/30 05:39:31;;;;;;;;;;;;;;;5.56;55.41;99824.22;5035098;28;19979;-61
2022/04/30 05:41:57;;;;;;;;;;;;;;;5.23;52.38;99816.94;5035080;28;20420;-63
2022/04/30 05:44:22;;;;;;;;;;;;;;;5.04;53.55;99812.34;5035539;28;20310;-62
2022/04/30 05:46:48;;;;;;;;;;;;;;;5.20;52.23;99811.22;5035254;28;19925;-62
2022/04/30 05:49:13;;;;;;;;;;;;;;;5.33;51.99;99815.78;5033766;28;20023;-62
2022/04/30 05:51:39;;;;;;;;;;;;;;;5.46;52.04;99813.22;5033997;28;19924;-62
2022/04/30 05:54:05;;;;;;;;;;;;;;;5.39;50.11;99815.81;5033850;28;19925;-65
2022/04/30 05:56:31;;;;;;;;;;;;;;;5.70;49.74;99810.09;5033103;28;19936;-63
2022/04/30 05:58:56;;;;;;;;;;;;;;;5.98;48.53;99816.34;5028776;28;19925;-61
2022/04/30 06:01:22;;;;;;;;;;;;;;;5.85;46.07;99817.88;5026029;28;20095;-63
2022/04/30 06:03:47;;;;;;;;;;;;;;;5.94;46.85;99815.91;5035155;28;19925;-61
2022/04/30 06:06:13;;;;;;;;;;;;;;;6.02;45.47;99821.00;5034371;28;20348;-62
2022/04/30 06:08:38;;;;;;;;;;;;;;;6.09;42.82;99816.59;5034791;28;19925;-63
2022/04/30 06:11:03;;;;;;;;;;;;;;;5.95;44.96;99828.06;5033949;28;19931;-62
2022/04/30 06:13:29;;;;;;;;;;;;;;;5.95;45.86;99820.19;5034866;28;19925;-62
2022/04/30 06:15:55;;;;;;;;;;;;;;;5.75;46.75;99822.69;5034297;28;19925;-64
2022/04/30 06:18:20;;;;;;;;;;;;;;;5.70;45.52;99823.25;5034579;28;20317;-62
2022/04/30 06:20:46;;;;;;;;;;;;;;;5.52;44.54;99825.59;5034055;28;19936;-62
2022/04/30 06:23:15;;;;;;;;;;;;;;;5.43;45.10;99816.22;5034414;28;19929;-62
2022/04/30 06:25:41;;;;;;;;;;;;;;;5.65;44.83;99824.88;5033089;28;19971;-67
2022/04/30 06:28:08;;;;;;;;;;;;;;;5.73;45.56;99823.88;5033396;28;19933;-61
2022/04/30 06:30:35;;;;;;;;;;;;;;;6.04;45.14;99824.25;5034450;28;19925;-61
2022/04/30 06:33:00;;;;;;;;;;;;;;;6.22;42.30;99823.69;5033071;28;19928;-64
2022/04/30 06:35:26;;;;;;;;;;;;;;;6.23;43.85;99824.50;5034377;28;19982;-63
2022/04/30 06:37:52;;;;;;;;;;;;;;;6.19;43.49;99818.03;5034718;28;19929;-62
2022/04/30 06:40:20;;;;;;;;;;;;;;;6.25;40.86;99830.41;5033289;28;21324;-64
2022/04/30 06:42:45;;;;;;;;;;;;;;;6.19;41.23;99846.97;5032931;28;19925;-64
2022/04/30 06:45:12;;;;;;;;;;;;;;;5.98;40.45;99827.69;5034390;28;19929;-62
2022/04/30 06:47:38;;;;;;;;;;;;;;;6.16;39.19;99831.59;5033019;28;19925;-61
2022/04/30 06:50:04;;;;;;;;;;;;;;;6.39;39.40;99826.78;5032856;28;20440;-65
2022/04/30 06:52:30;;;;;;;;;;;;;;;6.49;38.48;99829.84;5032851;28;20390;-62
2022/04/30 06:57:39;;;;;;;;;;;;;;;6.50;34.48;99820.94;5033079;28;19979;-62
2022/04/30 07:01:24;;;;;;;;;;;;;;;6.28;36.59;99838.69;5033873;28;19928;-62
2022/04/30 07:02:51;;;;;;;;;;;;;;;6.30;37.13;99836.69;5033653;28;19921;-63
2022/04/30 07:05:16;;;;;;;;;;;;;;;6.50;37.30;99828.84;5033687;28;19990;-63
2022/04/30 07:07:42;;;;;;;;;;;;;;;6.78;36.78;99826.03;5034052;28;19984;-63
2022/04/30 07:10:07;;;;;;;;;;;;;;;6.65;37.36;99835.75;5033720;28;20421;-63
2022/04/30 07:12:33;;;;;;;;;;;;;;;6.58;38.32;99844.44;5032491;28;19921;-63
2022/04/30 07:14:58;;;;;;;;;;;;;;;6.65;39.21;99833.09;5032315;28;20311;-66
2022/04/30 07:17:24;;;;;;;;;;;;;;;6.77;38.41;99837.59;5033744;28;19925;-62
2022/04/30 07:19:49;;;;;;;;;;;;;;;6.66;38.35;99838.19;5033554;28;19936;-63
2022/04/30 07:22:15;;;;;;;;;;;;;;;6.95;37.09;99839.63;5033284;28;20418;-64
2022/04/30 07:24:40;;;;;;;;;;;;;;;6.86;35.02;99846.13;5033459;28;19929;-65
2022/04/30 07:27:06;;;;;;;;;;;;;;;6.84;34.11;99845.50;5033576;28;19928;-64
2022/04/30 07:29:32;;;;;;;;;;;;;;;6.69;34.15;99839.63;5032194;28;20295;-65
2022/04/30 07:31:58;;;;;;;;;;;;;;;6.70;34.96;99838.59;5032117;28;19979;-63
2022/04/30 07:34:24;;;;;;;;;;;;;;;6.65;34.44;99831.31;5033194;28;20390;-64
2022/04/30 07:36:49;;;;;;;;;;;;;;;6.49;35.11;99829.03;5033359;28;19931;-62
2022/04/30 07:39:15;;;;;;;;;;;;;;;6.67;35.54;99828.44;5033404;28;19969;-63
2022/04/30 07:41:40;;;;;;;;;;;;;;;6.88;35.57;99823.00;5033243;28;20342;-63
2022/04/30 07:44:06;;;;;;;;;;;;;;;7.11;35.65;99822.59;5033155;28;19972;-65
2022/04/30 07:46:31;;;;;;;;;;;;;;;7.26;36.20;99822.38;5033087;28;19925;-63
2022/04/30 07:48:57;;;;;;;;;;;;;;;7.34;35.79;99829.25;5033215;28;19937;-64
2022/04/30 07:51:42;;;;;;;;;;;;;;;7.37;34.99;99821.75;5032809;28;19925;-63
2022/04/30 07:54:08;;;;;;;;;;;;;;;7.34;33.05;99824.00;5031915;28;20337;-62
2022/04/30 07:56:33;;;;;;;;;;;;;;;7.40;34.27;99823.97;5031775;28;19925;-63
2022/04/30 07:58:59;;;;;;;;;;;;;;;7.60;34.01;99820.50;5031511;28;19982;-64
2022/04/30 08:01:24;;;;;;;;;;;;;;;7.93;33.97;99813.25;5031542;28;19925;-62
2022/04/30 08:03:50;;;;;;;;;;;;;;;8.05;32.75;99818.69;5031563;28;20122;-63
2022/04/30 08:06:15;;;;;;;;;;;;;;;7.93;32.55;99812.47;5032812;28;20006;-62
2022/04/30 08:08:42;;;;;;;;;;;;;;;7.76;33.54;99832.41;5032651;28;19929;-62
2022/04/30 08:11:07;;;;;;;;;;;;;;;7.74;32.93;99819.44;5031123;28;20346;-62
2022/04/30 08:13:33;;;;;;;;;;;;;;;8.03;32.25;99822.56;5032496;28;20030;-65
2022/04/30 08:15:58;;;;;;;;;;;;;;;8.44;31.62;99816.09;5032459;28;19979;-62
2022/04/30 08:18:26;;;;;;;;;;;;;;;8.60;32.24;99812.94;5032348;28;19975;-64
2022/04/30 08:20:52;;;;;;;;;;;;;;;8.55;32.37;99810.13;5032649;28;19925;-62
2022/04/30 08:23:18;;;;;;;;;;;;;;;8.39;31.87;99819.38;5032669;28;19925;-63
2022/04/30 08:25:44;;;;;;;;;;;;;;;8.29;32.49;99809.22;5031378;28;19972;-64
2022/04/30 08:28:09;;;;;;;;;;;;;;;8.13;33.43;99822.94;5030929;28;20421;-62
2022/04/30 08:30:35;;;;;;;;;;;;;;;8.13;33.13;99823.75;5030974;28;19933;-63
2022/04/30 08:33:03;;;;;;;;;;;;;;;7.86;33.12;99833.59;5032475;28;20239;-62
2022/04/30 08:35:28;;;;;;;;;;;;;;;7.44;34.06;99830.47;5032356;28;19929;-62
2022/04/30 08:37:54;;;;;;;;;;;;;;;7.51;33.89;99819.91;5032335;28;19935;-62
2022/04/30 08:40:19;;;;;;;;;;;;;;;7.61;34.31;99814.19;5030747;28;19929;-63
2022/04/30 08:42:46;;;;;;;;;;;;;;;7.75;34.42;99813.13;5032421;28;19994;-61
2022/04/30 08:45:11;;;;;;;;;;;;;;;7.76;34.12;99806.81;5031943;28;19976;-62
2022/04/30 08:47:41;;;;;;;;;;;;;;;7.89;34.23;99814.72;5032273;28;20381;-62
2022/04/30 08:50:07;;;;;;;;;;;;;;;8.07;33.77;99806.09;5032290;28;19976;-61
2022/04/30 08:52:33;;;;;;;;;;;;;;;8.07;33.67;99808.75;5032108;28;19973;-62
2022/04/30 08:54:58;;;;;;;;;;;;;;;8.18;33.13;99813.38;5032029;28;19979;-62
2022/04/30 08:57:24;;;;;;;;;;;;;;;8.24;33.56;99809.06;5032105;28;19932;-63
2022/04/30 08:59:50;;;;;;;;;;;;;;;8.45;33.78;99801.88;5032124;28;20319;-63
2022/04/30 09:02:16;;;;;;;;;;;;;;;8.76;33.58;99793.09;5031752;28;20368;-61
2022/04/30 09:04:45;;;;;;;;;;;;;;;8.85;33.64;99803.22;5031764;28;19976;-62
2022/04/30 09:07:12;;;;;;;;;;;;;;;8.81;33.12;99809.94;5032199;28;19948;-62
2022/04/30 09:09:37;;;;;;;;;;;;;;;8.47;33.58;99811.22;5031199;28;19957;-63
2022/04/30 09:12:07;;;;;;;;;;;;;;;8.57;33.58;99797.50;5031800;28;19960;-62
2022/04/30 09:14:32;;;;;;;;;;;;;;;8.46;33.08;99804.28;5031896;28;20307;-63
2022/04/30 09:17:03;;;;;;;;;;;;;;;8.41;32.80;99796.19;5030270;28;19951;-63
2022/04/30 09:19:28;;;;;;;;;;;;;;;8.16;32.96;99804.03;5030662;28;20500;-62
2022/04/30 09:21:54;;;;;;;;;;;;;;;7.97;32.67;99793.38;5031888;28;20011;-61
2022/04/30 09:24:20;;;;;;;;;;;;;;;7.96;33.68;99802.28;5031578;28;19975;-63
2022/04/30 09:26:45;;;;;;;;;;;;;;;8.26;32.98;99798.28;5047090;28;19988;-63
2022/04/30 09:29:21;;;;;;;;;;;;;;;8.09;32.45;99800.59;5031744;28;19999;-62
2022/04/30 09:31:50;;;;;;;;;;;;;;;8.46;31.71;99790.28;5031473;28;20420;-62
2022/04/30 09:39:44;;;;;;;;;;;;;;;8.68;30.50;99780.13;5031676;28;20019;-62
2022/04/30 09:42:09;;;;;;;;;;;;;;;8.74;31.73;99780.09;5013757;28;20413;-62
2022/04/30 09:44:35;;;;;;;;;;;;;;;8.67;31.90;99786.47;5031213;28;20023;-64
2022/04/30 09:47:01;;;;;;;;;;;;;;;8.59;31.79;99785.72;5030020;28;20026;-62
2022/04/30 09:54:55;;;;;;;;;;;;;;;8.93;31.60;99780.97;5031578;28;19929;-62
2022/04/30 09:57:20;;;;;;;;;;;;;;;8.93;30.31;99778.31;5030231;28;19948;-63
2022/04/30 09:59:47;;;;;;;;;;;;;;;8.84;31.49;99792.84;5030145;28;19983;-63
2022/04/30 10:02:13;;;;;;;;;;;;;;;8.62;31.70;99790.56;5031365;28;19925;-63
2022/04/30 10:04:38;;;;;;;;;;;;;;;8.28;31.03;99785.69;5030178;28;19929;-63
2022/04/30 10:07:04;;;;;;;;;;;;;;;8.19;32.00;99785.13;5031549;28;19944;-62
2022/04/30 10:09:32;;;;;;;;;;;;;;;8.10;32.39;99794.31;5029960;28;20398;-62
2022/04/30 10:12:16;;;;;;;;;;;;;;;7.88;32.58;99793.78;5031285;28;20397;-62
2022/04/30 10:14:44;;;;;;;;;;;;;;;8.33;32.44;99785.84;5031238;28;19929;-62
2022/04/30 10:19:36;;;;;;;;;;;;;;;8.73;31.87;99773.19;5031198;28;20002;-64
2022/04/30 10:22:08;;;;;;;;;;;;;;;8.71;32.32;99774.44;5032707;28;19932;-62
2022/04/30 10:24:33;;;;;;;;;;;;;;;8.68;32.01;99778.34;5034393;28;19929;-63
2022/04/30 10:26:59;;;;;;;;;;;;;;;8.58;31.43;99784.06;5034210;28;19925;-62
2022/04/30 10:29:24;;;;;;;;;;;;;;;8.52;31.04;99782.28;5016758;28;20364;-64
2022/04/30 10:31:50;;;;;;;;;;;;;;;8.46;31.30;99790.28;5034561;28;19925;-63
2022/04/30 10:34:15;;;;;;;;;;;;;;;8.49;31.08;99781.91;5016362;28;20457;-63
2022/04/30 10:36:41;;;;;;;;;;;;;;;8.49;31.84;99774.00;5032909;28;19925;-63
2022/04/30 10:39:09;;;;;;;;;;;;;;;8.46;32.68;99777.88;5033479;28;20024;-62
2022/04/30 10:41:45;;;;;;;;;;;;;;;8.38;32.83;99793.94;5034440;28;20294;-63
2022/04/30 10:44:12;;;;;;;;;;;;;;;8.49;33.19;99798.56;5034592;28;19990;-63
2022/04/30 10:46:38;;;;;;;;;;;;;;;8.55;33.40;99791.63;5033074;28;19925;-63
2022/04/30 10:49:05;;;;;;;;;;;;;;;8.62;33.37;99787.94;5034762;28;19929;-61
2022/04/30 10:51:40;;;;;;;;;;;;;;;8.93;32.48;99790.72;5034216;28;19929;-63
2022/04/30 10:54:07;;;;;;;;;;;;;;;9.02;31.96;99777.00;5034068;28;20357;-62
2022/04/30 10:56:33;;;;;;;;;;;;;;;9.30;31.34;99787.13;5032818;28;20384;-62
2022/04/30 10:58:58;;;;;;;;;;;;;;;9.33;31.23;99783.25;5033874;28;20020;-61
2022/04/30 11:01:24;;;;;;;;;;;;;;;9.64;31.83;99782.28;5033808;28;19960;-63
2022/04/30 11:03:50;;;;;;;;;;;;;;;9.67;31.87;99784.47;5033947;28;19951;-62
2022/04/30 11:06:25;;;;;;;;;;;;;;;9.46;31.09;99769.84;5033732;28;19925;-64
2022/04/30 11:08:56;;;;;;;;;;;;;;;9.69;31.41;99768.38;5033862;28;19929;-62
2022/04/30 11:11:22;;;;;;;;;;;;;;;9.83;30.88;99769.84;5033567;28;20366;-62
2022/04/30 11:14:16;;;;;;;;;;;;;;;9.59;31.19;99771.56;5033187;28;19975;-63
2022/04/30 11:16:42;;;;;;;;;;;;;;;9.45;29.32;99762.16;5032430;28;19931;-62
2022/04/30 11:19:10;;;;;;;;;;;;;;;9.31;29.52;99761.47;5033559;28;19929;-63
2022/04/30 11:21:36;;;;;;;;;;;;;;;9.39;30.13;99773.63;5033649;28;20036;-62
2022/04/30 11:24:02;;;;;;;;;;;;;;;9.20;29.18;99759.56;5033426;28;20307;-63
2022/04/30 11:26:30;;;;;;;;;;;;;;;8.90;29.93;99762.09;5032125;28;19932;-63
2022/04/30 11:28:56;;;;;;;;;;;;;;;8.56;30.57;99769.44;5015519;28;19995;-62
2022/04/30 11:31:22;;;;;;;;;;;;;;;8.38;31.12;99770.16;5015329;28;19925;-61
2022/04/30 11:33:48;;;;;;;;;;;;;;;8.19;31.46;99769.28;5032391;28;19929;-62
2022/04/30 11:36:13;;;;;;;;;;;;;;;8.07;33.17;99768.34;5033108;28;19964;-62
2022/04/30 11:38:39;;;;;;;;;;;;;;;7.74;34.19;99777.22;5031931;28;20019;-62
2022/04/30 11:41:05;;;;;;;;;;;;;;;7.59;35.16;99776.63;5031915;28;20357;-62
2022/04/30 11:43:31;;;;;;;;;;;;;;;7.71;35.03;99772.34;5032966;28;20040;-63
2022/04/30 11:46:00;;;;;;;;;;;;;;;7.78;34.30;99770.50;5033239;28;20442;-62
2022/04/30 11:48:27;;;;;;;;;;;;;;;7.93;34.08;99762.31;5031685;28;19929;-64
2022/04/30 11:50:53;;;;;;;;;;;;;;;8.06;34.39;99771.97;5032960;28;19925;-62
2022/04/30 11:53:19;;;;;;;;;;;;;;;8.14;34.38;99774.38;5015180;28;20402;-62
2022/04/30 11:55:44;;;;;;;;;;;;;;;8.35;33.59;99781.16;5033086;28;19979;-64
2022/04/30 11:58:10;;;;;;;;;;;;;;;8.49;32.67;99766.88;5033283;28;19946;-63
2022/04/30 12:00:35;;;;;;;;;;;;;;;8.67;32.81;99757.38;5031786;28;19935;-63
2022/04/30 12:03:01;;;;;;;;;;;;;;;8.75;32.80;99765.06;5032923;28;20378;-62
2022/04/30 12:05:29;;;;;;;;;;;;;;;8.71;32.74;99756.75;5032714;28;19936;-65
2022/04/30 12:07:58;;;;;;;;;;;;;;;8.93;32.01;99749.22;5031430;28;20391;-63
2022/04/30 12:10:24;;;;;;;;;;;;;;;9.06;31.69;99757.06;5032820;28;19958;-63
2022/04/30 12:12:52;;;;;;;;;;;;;;;9.19;30.33;99755.31;5032488;28;20023;-62
2022/04/30 12:15:18;;;;;;;;;;;;;;;9.20;29.77;99757.72;5032400;28;19968;-62
2022/04/30 12:17:43;;;;;;;;;;;;;;;9.12;30.36;99760.66;5032776;28;19964;-62
2022/04/30 12:25:46;;;;;;;;;;;;;;;9.07;31.24;99749.94;5032412;28;20310;-62
2022/04/30 12:28:12;;;;;;;;;;;;;;;8.90;33.61;99754.97;5031330;28;19925;-62
2022/04/30 12:30:49;;;;;;;;;;;;;;;8.67;34.76;99760.03;5032528;28;19983;-62
2022/04/30 12:33:14;;;;;;;;;;;;;;;8.31;35.72;99772.03;5032557;28;20342;-63
2022/04/30 12:35:40;;;;;;;;;;;;;;;8.25;35.57;99771.06;5014711;28;20012;-64
2022/04/30 12:38:07;;;;;;;;;;;;;;;8.14;35.47;99761.16;5031023;28;19929;-62
2022/04/30 12:40:33;;;;;;;;;;;;;;;8.13;35.88;99752.44;5014431;28;20082;-63
2022/04/30 12:42:59;;;;;;;;;;;;;;;8.16;35.36;99754.66;5032434;28;19932;-61
2022/04/30 12:45:24;;;;;;;;;;;;;;;8.14;35.17;99761.16;5031305;28;19929;-64
2022/04/30 12:47:50;;;;;;;;;;;;;;;8.07;36.18;99757.78;5032259;28;19932;-62
2022/04/30 12:50:16;;;;;;;;;;;;;;;8.02;35.75;99754.94;5031066;28;20028;-64
2022/04/30 12:52:42;;;;;;;;;;;;;;;7.99;36.05;99750.09;5032254;28;19936;-63
2022/04/30 12:55:08;;;;;;;;;;;;;;;8.00;35.51;99755.19;5031728;28;19929;-63
2022/04/30 12:57:34;;;;;;;;;;;;;;;8.01;35.92;99756.78;5032149;28;19932;-61
2022/04/30 13:00:00;;;;;;;;;;;;;;;7.95;34.68;99741.78;5030689;28;19936;-62
2022/04/30 13:02:27;;;;;;;;;;;;;;;8.02;34.11;99747.03;5032048;28;20329;-62
2022/04/30 13:04:52;;;;;;;;;;;;;;;8.13;32.93;99739.25;5030880;28;19952;-63
2022/04/30 13:07:18;;;;;;;;;;;;;;;8.30;32.99;99736.91;5031881;28;20425;-62
2022/04/30 13:15:13;;;;;;;;;;;;;;;8.60;31.22;99742.41;5031842;28;19928;-62
2022/04/30 13:17:38;;;;;;;;;;;;;;;8.54;30.66;99735.34;5031728;28;20432;-63
2022/04/30 13:20:05;;;;;;;;;;;;;;;8.52;30.96;99737.38;5031623;28;19952;-63
2022/04/30 13:22:31;;;;;;;;;;;;;;;8.64;30.71;99735.66;5031900;28;19972;-63
2022/04/30 13:24:57;;;;;;;;;;;;;;;8.65;30.56;99728.56;5031623;28;19933;-64
2022/04/30 13:27:22;;;;;;;;;;;;;;;8.63;30.07;99741.97;5031636;28;19925;-62
2022/04/30 13:29:48;;;;;;;;;;;;;;;8.60;31.29;99723.09;4997552;28;19936;-61
2022/04/30 13:32:13;;;;;;;;;;;;;;;8.50;31.03;99728.03;5031745;28;20036;-62
2022/04/30 13:34:39;;;;;;;;;;;;;;;8.50;31.41;99735.97;5031381;28;19929;-63
2022/04/30 13:37:04;;;;;;;;;;;;;;;8.24;31.46;99727.19;5031802;28;19925;-63
2022/04/30 13:39:30;;;;;;;;;;;;;;;7.83;32.04;99735.56;5030212;28;19983;-64
2022/04/30 13:41:55;;;;;;;;;;;;;;;7.79;33.10;99748.34;5031595;28;20025;-63
2022/04/30 13:44:21;;;;;;;;;;;;;;;7.80;33.07;99733.34;5031633;28;20314;-63